sensor_id;sensor_type;location;lat;lon;timestamp;P1;durP1;ratioP1;P2;durP2;ratioP2
76856;SDS011;66179;44.686;37.628;2022-12-18T00:01:03;12.63;;;3.63;;
76856;SDS011;66179;44.686;37.628;2022-12-18T00:03:32;11.02;;;3.67;;
76856;SDS011;66179;44.686;37.628;2022-12-18T00:05:59;8.15;;;3.50;;
76856;SDS011;66179;44.686;37.628;2022-12-18T00:08:26;9.23;;;3.63;;
76856;SDS011;66179;44.686;37.628;2022-12-18T00:10:52;11.73;;;4.00;;
76856;SDS011;66179;44.686;37.628;2022-12-18T00:13:19;9.80;;;3.80;;
76856;SDS011;66179;44.686;37.628;2022-12-18T00:15:46;11.48;;;4.03;;
76856;SDS011;66179;44.686;37.628;2022-12-18T00:18:12;9.85;;;4.00;;
76856;SDS011;66179;44.686;37.628;2022-12-18T00:20:39;13.43;;;4.25;;
76856;SDS011;66179;44.686;37.628;2022-12-18T00:23:06;10.25;;;4.15;;
76856;SDS011;66179;44.686;37.628;2022-12-18T00:25:35;11.83;;;4.53;;
76856;SDS011;66179;44.686;37.628;2022-12-18T00:28:03;12.00;;;4.25;;
76856;SDS011;66179;44.686;37.628;2022-12-18T00:30:30;12.48;;;4.60;;
76856;SDS011;66179;44.686;37.628;2022-12-18T00:32:57;10.85;;;3.92;;
76856;SDS011;66179;44.686;37.628;2022-12-18T00:35:25;11.10;;;4.20;;
76856;SDS011;66179;44.686;37.628;2022-12-18T00:37:52;13.10;;;4.20;;
76856;SDS011;66179;44.686;37.628;2022-12-18T00:40:18;10.95;;;4.40;;
76856;SDS011;66179;44.686;37.628;2022-12-18T00:42:44;12.55;;;5.03;;
76856;SDS011;66179;44.686;37.628;2022-12-18T00:45:28;13.40;;;4.80;;
76856;SDS011;66179;44.686;37.628;2022-12-18T00:47:57;11.40;;;3.97;;
76856;SDS011;66179;44.686;37.628;2022-12-18T00:50:24;13.17;;;4.00;;
76856;SDS011;66179;44.686;37.628;2022-12-18T00:52:51;9.30;;;3.30;;
76856;SDS011;66179;44.686;37.628;2022-12-18T00:55:18;10.98;;;4.00;;
76856;SDS011;66179;44.686;37.628;2022-12-18T00:57:46;12.52;;;4.45;;
76856;SDS011;66179;44.686;37.628;2022-12-18T01:00:13;10.60;;;4.13;;
76856;SDS011;66179;44.686;37.628;2022-12-18T01:02:41;9.10;;;3.90;;
76856;SDS011;66179;44.686;37.628;2022-12-18T01:05:08;9.50;;;3.67;;
76856;SDS011;66179;44.686;37.628;2022-12-18T01:07:35;11.40;;;4.00;;
76856;SDS011;66179;44.686;37.628;2022-12-18T01:10:02;8.85;;;3.70;;
76856;SDS011;66179;44.686;37.628;2022-12-18T01:12:30;9.20;;;3.45;;
76856;SDS011;66179;44.686;37.628;2022-12-18T01:14:57;8.27;;;3.60;;
76856;SDS011;66179;44.686;37.628;2022-12-18T01:17:24;10.90;;;3.70;;
76856;SDS011;66179;44.686;37.628;2022-12-18T01:19:50;8.23;;;3.60;;
76856;SDS011;66179;44.686;37.628;2022-12-18T01:22:17;8.48;;;3.47;;
76856;SDS011;66179;44.686;37.628;2022-12-18T01:24:44;8.50;;;3.75;;
76856;SDS011;66179;44.686;37.628;2022-12-18T01:27:10;7.47;;;3.50;;
76856;SDS011;66179;44.686;37.628;2022-12-18T01:29:39;9.65;;;3.67;;
76856;SDS011;66179;44.686;37.628;2022-12-18T01:32:05;12.30;;;3.78;;
76856;SDS011;66179;44.686;37.628;2022-12-18T01:34:32;11.20;;;3.70;;
76856;SDS011;66179;44.686;37.628;2022-12-18T01:37:03;8.30;;;4.13;;
76856;SDS011;66179;44.686;37.628;2022-12-18T01:39:31;9.33;;;3.83;;
76856;SDS011;66179;44.686;37.628;2022-12-18T01:42:19;8.52;;;3.70;;
76856;SDS011;66179;44.686;37.628;2022-12-18T01:49:53;8.73;;;3.50;;
76856;SDS011;66179;44.686;37.628;2022-12-18T01:52:22;9.17;;;3.90;;
76856;SDS011;66179;44.686;37.628;2022-12-18T01:54:54;9.90;;;3.67;;
76856;SDS011;66179;44.686;37.628;2022-12-18T01:57:21;8.63;;;3.88;;
76856;SDS011;66179;44.686;37.628;2022-12-18T01:59:50;10.45;;;3.97;;
76856;SDS011;66179;44.686;37.628;2022-12-18T02:02:20;8.25;;;3.80;;
76856;SDS011;66179;44.686;37.628;2022-12-18T02:04:47;8.77;;;3.67;;
76856;SDS011;66179;44.686;37.628;2022-12-18T02:07:20;9.43;;;3.60;;
76856;SDS011;66179;44.686;37.628;2022-12-18T02:15:40;8.55;;;3.85;;
76856;SDS011;66179;44.686;37.628;2022-12-18T02:18:21;9.47;;;3.70;;
76856;SDS011;66179;44.686;37.628;2022-12-18T02:20:57;7.80;;;3.40;;
76856;SDS011;66179;44.686;37.628;2022-12-18T02:23:41;7.97;;;3.90;;
76856;SDS011;66179;44.686;37.628;2022-12-18T02:29:02;7.68;;;3.47;;
76856;SDS011;66179;44.686;37.628;2022-12-18T02:31:50;11.10;;;3.67;;
76856;SDS011;66179;44.686;37.628;2022-12-18T02:34:19;9.23;;;3.50;;
76856;SDS011;66179;44.686;37.628;2022-12-18T02:36:49;7.75;;;3.75;;
76856;SDS011;66179;44.686;37.628;2022-12-18T02:39:20;10.05;;;3.53;;
76856;SDS011;66179;44.686;37.628;2022-12-18T02:42:03;11.13;;;3.53;;
76856;SDS011;66179;44.686;37.628;2022-12-18T02:44:34;9.13;;;3.33;;
76856;SDS011;66179;44.686;37.628;2022-12-18T02:47:09;8.93;;;3.47;;
76856;SDS011;66179;44.686;37.628;2022-12-18T02:58:26;8.90;;;3.10;;
76856;SDS011;66179;44.686;37.628;2022-12-18T03:03:51;9.15;;;3.40;;
76856;SDS011;66179;44.686;37.628;2022-12-18T03:06:33;7.88;;;3.50;;
76856;SDS011;66179;44.686;37.628;2022-12-18T03:09:06;7.03;;;3.05;;
76856;SDS011;66179;44.686;37.628;2022-12-18T03:11:37;8.13;;;3.20;;
76856;SDS011;66179;44.686;37.628;2022-12-18T03:14:26;7.93;;;3.30;;
76856;SDS011;66179;44.686;37.628;2022-12-18T03:16:58;8.93;;;3.00;;
76856;SDS011;66179;44.686;37.628;2022-12-18T03:19:29;11.60;;;3.75;;
76856;SDS011;66179;44.686;37.628;2022-12-18T03:22:00;8.25;;;3.00;;
76856;SDS011;66179;44.686;37.628;2022-12-18T03:24:36;7.10;;;3.17;;
76856;SDS011;66179;44.686;37.628;2022-12-18T03:27:10;8.38;;;3.20;;
76856;SDS011;66179;44.686;37.628;2022-12-18T03:29:45;7.80;;;3.13;;
76856;SDS011;66179;44.686;37.628;2022-12-18T03:32:26;10.23;;;3.30;;
76856;SDS011;66179;44.686;37.628;2022-12-18T03:35:00;7.97;;;3.20;;
76856;SDS011;66179;44.686;37.628;2022-12-18T03:37:33;9.13;;;3.10;;
76856;SDS011;66179;44.686;37.628;2022-12-18T03:40:00;9.13;;;3.22;;
76856;SDS011;66179;44.686;37.628;2022-12-18T03:53:30;7.60;;;2.85;;
76856;SDS011;66179;44.686;37.628;2022-12-18T03:56:22;7.25;;;3.30;;
76856;SDS011;66179;44.686;37.628;2022-12-18T03:58:52;7.03;;;2.95;;
76856;SDS011;66179;44.686;37.628;2022-12-18T04:01:40;9.27;;;3.55;;
76856;SDS011;66179;44.686;37.628;2022-12-18T04:04:13;7.47;;;3.17;;
76856;SDS011;66179;44.686;37.628;2022-12-18T04:06:43;7.50;;;3.17;;
76856;SDS011;66179;44.686;37.628;2022-12-18T04:09:12;8.18;;;3.22;;
76856;SDS011;66179;44.686;37.628;2022-12-18T04:11:43;8.95;;;3.50;;
76856;SDS011;66179;44.686;37.628;2022-12-18T04:14:14;8.35;;;3.05;;
76856;SDS011;66179;44.686;37.628;2022-12-18T04:16:41;9.10;;;3.50;;
76856;SDS011;66179;44.686;37.628;2022-12-18T04:19:11;9.82;;;3.60;;
76856;SDS011;66179;44.686;37.628;2022-12-18T04:21:41;8.30;;;3.28;;
76856;SDS011;66179;44.686;37.628;2022-12-18T04:24:09;8.35;;;3.35;;
76856;SDS011;66179;44.686;37.628;2022-12-18T04:26:40;8.38;;;4.05;;
76856;SDS011;66179;44.686;37.628;2022-12-18T04:29:14;8.23;;;3.73;;
76856;SDS011;66179;44.686;37.628;2022-12-18T04:31:41;7.40;;;3.22;;
76856;SDS011;66179;44.686;37.628;2022-12-18T04:34:08;7.63;;;3.20;;
76856;SDS011;66179;44.686;37.628;2022-12-18T04:36:40;7.63;;;3.70;;
76856;SDS011;66179;44.686;37.628;2022-12-18T04:39:07;9.68;;;3.20;;
76856;SDS011;66179;44.686;37.628;2022-12-18T04:41:34;7.80;;;3.17;;
76856;SDS011;66179;44.686;37.628;2022-12-18T04:44:01;8.10;;;3.20;;
76856;SDS011;66179;44.686;37.628;2022-12-18T04:46:27;8.52;;;3.30;;
76856;SDS011;66179;44.686;37.628;2022-12-18T04:48:54;10.43;;;3.13;;
76856;SDS011;66179;44.686;37.628;2022-12-18T04:51:20;8.68;;;3.60;;
76856;SDS011;66179;44.686;37.628;2022-12-18T04:53:47;7.50;;;3.20;;
76856;SDS011;66179;44.686;37.628;2022-12-18T04:56:14;7.07;;;3.33;;
76856;SDS011;66179;44.686;37.628;2022-12-18T04:58:42;8.95;;;3.28;;
76856;SDS011;66179;44.686;37.628;2022-12-18T05:01:10;8.32;;;3.05;;
76856;SDS011;66179;44.686;37.628;2022-12-18T05:03:39;9.18;;;3.28;;
76856;SDS011;66179;44.686;37.628;2022-12-18T05:06:06;6.83;;;2.83;;
76856;SDS011;66179;44.686;37.628;2022-12-18T05:08:33;8.82;;;3.20;;
76856;SDS011;66179;44.686;37.628;2022-12-18T05:13:31;8.25;;;3.45;;
76856;SDS011;66179;44.686;37.628;2022-12-18T05:15:58;7.88;;;3.15;;
76856;SDS011;66179;44.686;37.628;2022-12-18T05:18:25;7.33;;;2.83;;
76856;SDS011;66179;44.686;37.628;2022-12-18T05:20:52;7.43;;;2.97;;
76856;SDS011;66179;44.686;37.628;2022-12-18T05:23:19;9.38;;;2.88;;
76856;SDS011;66179;44.686;37.628;2022-12-18T05:25:50;8.25;;;3.65;;
76856;SDS011;66179;44.686;37.628;2022-12-18T05:28:18;9.50;;;3.42;;
76856;SDS011;66179;44.686;37.628;2022-12-18T05:30:49;7.63;;;3.10;;
76856;SDS011;66179;44.686;37.628;2022-12-18T05:33:20;9.13;;;3.30;;
76856;SDS011;66179;44.686;37.628;2022-12-18T05:35:51;11.40;;;4.30;;
76856;SDS011;66179;44.686;37.628;2022-12-18T05:38:18;9.77;;;4.80;;
76856;SDS011;66179;44.686;37.628;2022-12-18T05:40:47;8.77;;;4.57;;
76856;SDS011;66179;44.686;37.628;2022-12-18T05:43:14;9.23;;;3.67;;
76856;SDS011;66179;44.686;37.628;2022-12-18T05:45:41;7.47;;;3.45;;
76856;SDS011;66179;44.686;37.628;2022-12-18T05:48:08;9.48;;;3.20;;
76856;SDS011;66179;44.686;37.628;2022-12-18T05:50:38;8.55;;;3.22;;
76856;SDS011;66179;44.686;37.628;2022-12-18T05:53:07;10.63;;;3.40;;
76856;SDS011;66179;44.686;37.628;2022-12-18T05:55:37;7.93;;;3.10;;
76856;SDS011;66179;44.686;37.628;2022-12-18T05:58:05;8.57;;;3.53;;
76856;SDS011;66179;44.686;37.628;2022-12-18T06:00:34;7.65;;;3.55;;
76856;SDS011;66179;44.686;37.628;2022-12-18T06:03:06;9.95;;;3.58;;
76856;SDS011;66179;44.686;37.628;2022-12-18T06:05:36;9.23;;;4.18;;
76856;SDS011;66179;44.686;37.628;2022-12-18T06:08:07;10.90;;;3.60;;
76856;SDS011;66179;44.686;37.628;2022-12-18T06:10:34;12.77;;;3.88;;
76856;SDS011;66179;44.686;37.628;2022-12-18T06:13:01;10.48;;;3.80;;
76856;SDS011;66179;44.686;37.628;2022-12-18T06:15:27;10.73;;;4.10;;
76856;SDS011;66179;44.686;37.628;2022-12-18T06:17:54;9.90;;;4.30;;
76856;SDS011;66179;44.686;37.628;2022-12-18T06:20:20;9.20;;;4.10;;
76856;SDS011;66179;44.686;37.628;2022-12-18T06:22:47;9.13;;;3.78;;
76856;SDS011;66179;44.686;37.628;2022-12-18T06:25:14;10.85;;;3.40;;
76856;SDS011;66179;44.686;37.628;2022-12-18T06:27:40;8.63;;;3.40;;
76856;SDS011;66179;44.686;37.628;2022-12-18T06:30:07;11.18;;;3.95;;
76856;SDS011;66179;44.686;37.628;2022-12-18T06:32:34;9.80;;;3.78;;
76856;SDS011;66179;44.686;37.628;2022-12-18T06:35:01;9.20;;;3.70;;
76856;SDS011;66179;44.686;37.628;2022-12-18T06:37:27;11.38;;;3.58;;
76856;SDS011;66179;44.686;37.628;2022-12-18T06:39:54;10.35;;;3.55;;
76856;SDS011;66179;44.686;37.628;2022-12-18T06:42:20;9.65;;;3.75;;
76856;SDS011;66179;44.686;37.628;2022-12-18T06:44:50;9.25;;;3.63;;
76856;SDS011;66179;44.686;37.628;2022-12-18T06:47:16;10.73;;;4.13;;
76856;SDS011;66179;44.686;37.628;2022-12-18T06:49:43;13.18;;;4.10;;
76856;SDS011;66179;44.686;37.628;2022-12-18T06:52:10;9.20;;;3.90;;
76856;SDS011;66179;44.686;37.628;2022-12-18T06:54:36;14.18;;;4.68;;
76856;SDS011;66179;44.686;37.628;2022-12-18T06:57:03;10.05;;;4.25;;
76856;SDS011;66179;44.686;37.628;2022-12-18T06:59:29;10.40;;;4.10;;
76856;SDS011;66179;44.686;37.628;2022-12-18T07:01:56;9.43;;;4.30;;
76856;SDS011;66179;44.686;37.628;2022-12-18T07:04:26;10.55;;;4.40;;
76856;SDS011;66179;44.686;37.628;2022-12-18T07:06:56;14.13;;;5.72;;
76856;SDS011;66179;44.686;37.628;2022-12-18T07:09:23;10.80;;;5.20;;
76856;SDS011;66179;44.686;37.628;2022-12-18T07:11:50;13.57;;;5.10;;
76856;SDS011;66179;44.686;37.628;2022-12-18T07:14:17;10.85;;;4.90;;
76856;SDS011;66179;44.686;37.628;2022-12-18T07:16:43;10.93;;;4.90;;
76856;SDS011;66179;44.686;37.628;2022-12-18T07:19:10;11.63;;;4.75;;
76856;SDS011;66179;44.686;37.628;2022-12-18T07:21:36;12.43;;;4.60;;
76856;SDS011;66179;44.686;37.628;2022-12-18T07:24:03;12.18;;;4.72;;
76856;SDS011;66179;44.686;37.628;2022-12-18T07:26:30;11.77;;;4.70;;
76856;SDS011;66179;44.686;37.628;2022-12-18T07:28:57;11.80;;;5.38;;
76856;SDS011;66179;44.686;37.628;2022-12-18T07:31:24;12.30;;;5.00;;
76856;SDS011;66179;44.686;37.628;2022-12-18T07:33:51;11.10;;;4.93;;
76856;SDS011;66179;44.686;37.628;2022-12-18T07:36:18;13.27;;;5.93;;
76856;SDS011;66179;44.686;37.628;2022-12-18T07:38:48;11.82;;;5.35;;
76856;SDS011;66179;44.686;37.628;2022-12-18T07:41:17;10.88;;;4.40;;
76856;SDS011;66179;44.686;37.628;2022-12-18T07:43:44;12.48;;;4.43;;
76856;SDS011;66179;44.686;37.628;2022-12-18T07:46:12;12.73;;;5.20;;
76856;SDS011;66179;44.686;37.628;2022-12-18T07:48:42;10.13;;;4.25;;
76856;SDS011;66179;44.686;37.628;2022-12-18T07:51:09;10.52;;;4.40;;
76856;SDS011;66179;44.686;37.628;2022-12-18T07:53:39;8.80;;;4.43;;
76856;SDS011;66179;44.686;37.628;2022-12-18T07:56:10;14.30;;;5.03;;
76856;SDS011;66179;44.686;37.628;2022-12-18T07:58:38;12.55;;;4.20;;
76856;SDS011;66179;44.686;37.628;2022-12-18T08:01:09;9.20;;;4.28;;
76856;SDS011;66179;44.686;37.628;2022-12-18T08:03:37;11.85;;;4.75;;
76856;SDS011;66179;44.686;37.628;2022-12-18T08:06:06;10.80;;;4.60;;
76856;SDS011;66179;44.686;37.628;2022-12-18T08:08:34;12.73;;;5.30;;
76856;SDS011;66179;44.686;37.628;2022-12-18T08:11:01;10.07;;;4.00;;
76856;SDS011;66179;44.686;37.628;2022-12-18T08:13:28;10.80;;;4.28;;
76856;SDS011;66179;44.686;37.628;2022-12-18T08:16:02;10.00;;;4.50;;
76856;SDS011;66179;44.686;37.628;2022-12-18T08:18:32;12.07;;;4.65;;
76856;SDS011;66179;44.686;37.628;2022-12-18T08:21:12;11.35;;;4.78;;
76856;SDS011;66179;44.686;37.628;2022-12-18T08:23:48;12.30;;;4.47;;
76856;SDS011;66179;44.686;37.628;2022-12-18T08:26:16;10.13;;;4.40;;
76856;SDS011;66179;44.686;37.628;2022-12-18T08:28:42;11.30;;;4.80;;
76856;SDS011;66179;44.686;37.628;2022-12-18T08:31:09;11.48;;;4.63;;
76856;SDS011;66179;44.686;37.628;2022-12-18T08:33:37;11.73;;;4.63;;
76856;SDS011;66179;44.686;37.628;2022-12-18T08:36:05;11.10;;;4.57;;
76856;SDS011;66179;44.686;37.628;2022-12-18T08:38:32;10.45;;;3.92;;
76856;SDS011;66179;44.686;37.628;2022-12-18T08:41:00;11.27;;;4.15;;
76856;SDS011;66179;44.686;37.628;2022-12-18T08:43:34;8.70;;;4.20;;
76856;SDS011;66179;44.686;37.628;2022-12-18T08:46:20;8.85;;;3.80;;
76856;SDS011;66179;44.686;37.628;2022-12-18T08:48:48;10.45;;;3.67;;
76856;SDS011;66179;44.686;37.628;2022-12-18T08:51:18;9.30;;;4.00;;
76856;SDS011;66179;44.686;37.628;2022-12-18T08:53:45;11.73;;;4.15;;
76856;SDS011;66179;44.686;37.628;2022-12-18T08:56:13;14.07;;;4.63;;
76856;SDS011;66179;44.686;37.628;2022-12-18T08:58:40;11.13;;;4.35;;
76856;SDS011;66179;44.686;37.628;2022-12-18T09:01:08;11.23;;;4.47;;
76856;SDS011;66179;44.686;37.628;2022-12-18T09:03:36;11.27;;;4.65;;
76856;SDS011;66179;44.686;37.628;2022-12-18T09:06:04;13.40;;;5.60;;
76856;SDS011;66179;44.686;37.628;2022-12-18T09:08:30;11.70;;;5.15;;
76856;SDS011;66179;44.686;37.628;2022-12-18T09:11:00;9.70;;;4.35;;
76856;SDS011;66179;44.686;37.628;2022-12-18T09:13:26;9.85;;;4.22;;
76856;SDS011;66179;44.686;37.628;2022-12-18T09:15:53;10.23;;;4.35;;
76856;SDS011;66179;44.686;37.628;2022-12-18T09:18:21;12.00;;;4.80;;
76856;SDS011;66179;44.686;37.628;2022-12-18T09:20:49;10.60;;;4.30;;
76856;SDS011;66179;44.686;37.628;2022-12-18T09:23:18;16.35;;;4.20;;
76856;SDS011;66179;44.686;37.628;2022-12-18T09:25:45;11.35;;;4.20;;
76856;SDS011;66179;44.686;37.628;2022-12-18T09:28:15;11.07;;;4.43;;
76856;SDS011;66179;44.686;37.628;2022-12-18T09:30:44;11.40;;;4.50;;
76856;SDS011;66179;44.686;37.628;2022-12-18T09:33:12;11.15;;;4.75;;
76856;SDS011;66179;44.686;37.628;2022-12-18T09:35:39;13.30;;;5.25;;
76856;SDS011;66179;44.686;37.628;2022-12-18T09:38:08;11.98;;;4.93;;
76856;SDS011;66179;44.686;37.628;2022-12-18T09:40:47;10.95;;;4.18;;
76856;SDS011;66179;44.686;37.628;2022-12-18T09:43:18;13.52;;;4.45;;
76856;SDS011;66179;44.686;37.628;2022-12-18T09:46:01;11.32;;;4.10;;
76856;SDS011;66179;44.686;37.628;2022-12-18T09:48:34;11.27;;;4.15;;
76856;SDS011;66179;44.686;37.628;2022-12-18T09:51:03;9.88;;;4.45;;
76856;SDS011;66179;44.686;37.628;2022-12-18T09:54:04;11.48;;;4.50;;
76856;SDS011;66179;44.686;37.628;2022-12-18T09:56:38;11.88;;;4.45;;
76856;SDS011;66179;44.686;37.628;2022-12-18T09:59:14;12.40;;;4.97;;
76856;SDS011;66179;44.686;37.628;2022-12-18T10:01:56;11.60;;;4.55;;
76856;SDS011;66179;44.686;37.628;2022-12-18T10:04:23;10.52;;;4.25;;
76856;SDS011;66179;44.686;37.628;2022-12-18T10:07:06;12.15;;;4.90;;
76856;SDS011;66179;44.686;37.628;2022-12-18T10:09:48;11.90;;;5.32;;
76856;SDS011;66179;44.686;37.628;2022-12-18T10:15:21;12.77;;;4.88;;
76856;SDS011;66179;44.686;37.628;2022-12-18T10:18:00;10.10;;;4.80;;
76856;SDS011;66179;44.686;37.628;2022-12-18T10:20:36;12.43;;;4.50;;
76856;SDS011;66179;44.686;37.628;2022-12-18T10:25:50;10.52;;;3.92;;
76856;SDS011;66179;44.686;37.628;2022-12-18T10:28:29;12.07;;;4.50;;
76856;SDS011;66179;44.686;37.628;2022-12-18T10:30:57;9.88;;;4.38;;
76856;SDS011;66179;44.686;37.628;2022-12-18T10:33:27;11.88;;;4.40;;
76856;SDS011;66179;44.686;37.628;2022-12-18T10:35:55;9.68;;;4.25;;
76856;SDS011;66179;44.686;37.628;2022-12-18T10:38:23;9.98;;;4.22;;
76856;SDS011;66179;44.686;37.628;2022-12-18T10:41:01;13.13;;;5.03;;
76856;SDS011;66179;44.686;37.628;2022-12-18T10:43:29;10.40;;;4.57;;
76856;SDS011;66179;44.686;37.628;2022-12-18T10:45:58;13.52;;;5.28;;
76856;SDS011;66179;44.686;37.628;2022-12-18T10:48:35;12.05;;;5.07;;
76856;SDS011;66179;44.686;37.628;2022-12-18T10:51:05;11.75;;;4.20;;
76856;SDS011;66179;44.686;37.628;2022-12-18T10:53:36;12.18;;;4.75;;
76856;SDS011;66179;44.686;37.628;2022-12-18T10:56:03;11.60;;;4.65;;
76856;SDS011;66179;44.686;37.628;2022-12-18T10:58:34;14.30;;;7.32;;
76856;SDS011;66179;44.686;37.628;2022-12-18T11:01:07;13.65;;;5.50;;
76856;SDS011;66179;44.686;37.628;2022-12-18T11:03:45;12.15;;;5.10;;
76856;SDS011;66179;44.686;37.628;2022-12-18T11:06:14;14.30;;;5.25;;
76856;SDS011;66179;44.686;37.628;2022-12-18T11:08:43;12.95;;;5.38;;
76856;SDS011;66179;44.686;37.628;2022-12-18T11:11:23;11.25;;;5.90;;
76856;SDS011;66179;44.686;37.628;2022-12-18T11:16:47;12.15;;;5.53;;
76856;SDS011;66179;44.686;37.628;2022-12-18T11:22:17;14.80;;;6.30;;
76856;SDS011;66179;44.686;37.628;2022-12-18T11:24:55;11.88;;;5.88;;
76856;SDS011;66179;44.686;37.628;2022-12-18T11:27:25;13.15;;;5.22;;
76856;SDS011;66179;44.686;37.628;2022-12-18T11:29:52;12.07;;;6.13;;
76856;SDS011;66179;44.686;37.628;2022-12-18T11:32:34;13.95;;;6.25;;
76856;SDS011;66179;44.686;37.628;2022-12-18T11:37:49;12.43;;;6.53;;
76856;SDS011;66179;44.686;37.628;2022-12-18T11:40:36;11.88;;;6.82;;
76856;SDS011;66179;44.686;37.628;2022-12-18T11:43:16;14.27;;;7.50;;
76856;SDS011;66179;44.686;37.628;2022-12-18T11:45:55;15.48;;;8.73;;
76856;SDS011;66179;44.686;37.628;2022-12-18T11:48:32;12.45;;;7.95;;
76856;SDS011;66179;44.686;37.628;2022-12-18T11:51:04;13.50;;;8.32;;
76856;SDS011;66179;44.686;37.628;2022-12-18T11:53:36;13.05;;;7.55;;
76856;SDS011;66179;44.686;37.628;2022-12-18T11:59:07;11.80;;;6.35;;
76856;SDS011;66179;44.686;37.628;2022-12-18T12:09:53;13.05;;;6.88;;
76856;SDS011;66179;44.686;37.628;2022-12-18T12:18:07;13.80;;;7.18;;
76856;SDS011;66179;44.686;37.628;2022-12-18T12:23:35;13.07;;;6.38;;
76856;SDS011;66179;44.686;37.628;2022-12-18T12:31:43;13.80;;;6.85;;
76856;SDS011;66179;44.686;37.628;2022-12-18T12:39:56;14.70;;;7.57;;
76856;SDS011;66179;44.686;37.628;2022-12-18T12:42:30;13.50;;;7.80;;
76856;SDS011;66179;44.686;37.628;2022-12-18T12:45:21;12.70;;;6.57;;
76856;SDS011;66179;44.686;37.628;2022-12-18T12:47:56;13.93;;;6.88;;
76856;SDS011;66179;44.686;37.628;2022-12-18T12:50:25;13.45;;;7.40;;
76856;SDS011;66179;44.686;37.628;2022-12-18T12:52:53;14.82;;;7.30;;
76856;SDS011;66179;44.686;37.628;2022-12-18T12:55:28;15.10;;;7.63;;
76856;SDS011;66179;44.686;37.628;2022-12-18T13:03:57;20.80;;;9.73;;
76856;SDS011;66179;44.686;37.628;2022-12-18T13:06:50;18.75;;;9.25;;
76856;SDS011;66179;44.686;37.628;2022-12-18T13:12:52;22.48;;;10.20;;
76856;SDS011;66179;44.686;37.628;2022-12-18T13:15:24;24.23;;;11.13;;
76856;SDS011;66179;44.686;37.628;2022-12-18T13:20:37;27.80;;;12.35;;
76856;SDS011;66179;44.686;37.628;2022-12-18T13:25:52;39.40;;;15.45;;
76856;SDS011;66179;44.686;37.628;2022-12-18T13:31:02;29.55;;;13.85;;
76856;SDS011;66179;44.686;37.628;2022-12-18T13:38:42;32.67;;;13.75;;
76856;SDS011;66179;44.686;37.628;2022-12-18T13:43:40;31.67;;;12.40;;
76856;SDS011;66179;44.686;37.628;2022-12-18T13:46:27;32.38;;;12.45;;
76856;SDS011;66179;44.686;37.628;2022-12-18T13:49:02;27.90;;;11.37;;
76856;SDS011;66179;44.686;37.628;2022-12-18T13:51:49;29.42;;;12.20;;
76856;SDS011;66179;44.686;37.628;2022-12-18T13:57:24;29.20;;;11.73;;
76856;SDS011;66179;44.686;37.628;2022-12-18T13:59:56;27.17;;;11.50;;
76856;SDS011;66179;44.686;37.628;2022-12-18T14:02:25;25.60;;;12.20;;
76856;SDS011;66179;44.686;37.628;2022-12-18T14:04:54;28.30;;;11.63;;
76856;SDS011;66179;44.686;37.628;2022-12-18T14:07:24;29.70;;;11.77;;
76856;SDS011;66179;44.686;37.628;2022-12-18T14:09:53;29.10;;;11.73;;
76856;SDS011;66179;44.686;37.628;2022-12-18T14:12:32;28.80;;;11.43;;
76856;SDS011;66179;44.686;37.628;2022-12-18T14:15:29;27.63;;;11.60;;
76856;SDS011;66179;44.686;37.628;2022-12-18T14:20:58;29.13;;;13.48;;
76856;SDS011;66179;44.686;37.628;2022-12-18T14:28:52;18.67;;;9.17;;
76856;SDS011;66179;44.686;37.628;2022-12-18T14:31:21;20.70;;;9.32;;
76856;SDS011;66179;44.686;37.628;2022-12-18T14:33:50;19.48;;;8.77;;
76856;SDS011;66179;44.686;37.628;2022-12-18T14:36:18;19.15;;;8.75;;
76856;SDS011;66179;44.686;37.628;2022-12-18T14:38:56;19.33;;;9.63;;
76856;SDS011;66179;44.686;37.628;2022-12-18T14:41:24;21.43;;;10.23;;
76856;SDS011;66179;44.686;37.628;2022-12-18T14:43:52;19.35;;;9.50;;
76856;SDS011;66179;44.686;37.628;2022-12-18T14:49:02;18.60;;;9.27;;
76856;SDS011;66179;44.686;37.628;2022-12-18T14:52:03;16.48;;;8.45;;
76856;SDS011;66179;44.686;37.628;2022-12-18T14:54:53;16.37;;;7.73;;
76856;SDS011;66179;44.686;37.628;2022-12-18T14:57:22;17.00;;;8.25;;
76856;SDS011;66179;44.686;37.628;2022-12-18T15:00:04;16.45;;;9.23;;
76856;SDS011;66179;44.686;37.628;2022-12-18T15:02:42;17.48;;;8.13;;
76856;SDS011;66179;44.686;37.628;2022-12-18T15:07:57;14.93;;;8.43;;
76856;SDS011;66179;44.686;37.628;2022-12-18T15:10:26;13.85;;;7.53;;
76856;SDS011;66179;44.686;37.628;2022-12-18T15:18:00;14.90;;;8.57;;
76856;SDS011;66179;44.686;37.628;2022-12-18T15:20:27;15.03;;;8.90;;
76856;SDS011;66179;44.686;37.628;2022-12-18T15:22:57;16.13;;;8.60;;
76856;SDS011;66179;44.686;37.628;2022-12-18T15:25:27;13.65;;;8.07;;
76856;SDS011;66179;44.686;37.628;2022-12-18T15:28:00;14.52;;;8.23;;
76856;SDS011;66179;44.686;37.628;2022-12-18T15:30:26;14.75;;;8.13;;
76856;SDS011;66179;44.686;37.628;2022-12-18T15:33:16;13.77;;;8.63;;
76856;SDS011;66179;44.686;37.628;2022-12-18T15:35:55;13.75;;;7.07;;
76856;SDS011;66179;44.686;37.628;2022-12-18T15:38:23;15.15;;;8.05;;
76856;SDS011;66179;44.686;37.628;2022-12-18T15:40:49;16.20;;;7.93;;
76856;SDS011;66179;44.686;37.628;2022-12-18T15:43:16;14.93;;;8.48;;
76856;SDS011;66179;44.686;37.628;2022-12-18T15:46:11;15.13;;;7.87;;
76856;SDS011;66179;44.686;37.628;2022-12-18T15:48:47;13.07;;;6.95;;
76856;SDS011;66179;44.686;37.628;2022-12-18T15:51:34;12.93;;;6.95;;
76856;SDS011;66179;44.686;37.628;2022-12-18T15:54:04;13.27;;;7.53;;
76856;SDS011;66179;44.686;37.628;2022-12-18T15:56:32;13.23;;;7.03;;
76856;SDS011;66179;44.686;37.628;2022-12-18T15:59:18;12.70;;;6.63;;
76856;SDS011;66179;44.686;37.628;2022-12-18T16:01:46;12.65;;;5.93;;
76856;SDS011;66179;44.686;37.628;2022-12-18T16:04:15;13.27;;;6.70;;
76856;SDS011;66179;44.686;37.628;2022-12-18T16:06:46;14.57;;;7.72;;
76856;SDS011;66179;44.686;37.628;2022-12-18T16:09:13;12.60;;;6.63;;
76856;SDS011;66179;44.686;37.628;2022-12-18T16:11:41;12.83;;;7.27;;
76856;SDS011;66179;44.686;37.628;2022-12-18T16:14:16;11.55;;;6.43;;
76856;SDS011;66179;44.686;37.628;2022-12-18T16:16:47;12.65;;;7.07;;
76856;SDS011;66179;44.686;37.628;2022-12-18T16:19:15;12.43;;;6.90;;
76856;SDS011;66179;44.686;37.628;2022-12-18T16:21:42;14.93;;;7.93;;
76856;SDS011;66179;44.686;37.628;2022-12-18T16:24:16;12.73;;;7.20;;
76856;SDS011;66179;44.686;37.628;2022-12-18T16:29:51;16.13;;;8.50;;
76856;SDS011;66179;44.686;37.628;2022-12-18T16:32:18;15.23;;;8.38;;
76856;SDS011;66179;44.686;37.628;2022-12-18T16:34:47;16.88;;;9.38;;
76856;SDS011;66179;44.686;37.628;2022-12-18T16:37:14;15.20;;;8.43;;
76856;SDS011;66179;44.686;37.628;2022-12-18T16:39:42;14.82;;;7.93;;
76856;SDS011;66179;44.686;37.628;2022-12-18T16:42:10;9.98;;;5.63;;
76856;SDS011;66179;44.686;37.628;2022-12-18T16:44:45;13.02;;;6.70;;
76856;SDS011;66179;44.686;37.628;2022-12-18T16:47:13;12.93;;;7.63;;
76856;SDS011;66179;44.686;37.628;2022-12-18T16:49:41;11.77;;;6.87;;
76856;SDS011;66179;44.686;37.628;2022-12-18T16:52:12;9.77;;;5.03;;
76856;SDS011;66179;44.686;37.628;2022-12-18T16:54:39;12.00;;;6.65;;
76856;SDS011;66179;44.686;37.628;2022-12-18T16:57:06;12.40;;;6.65;;
76856;SDS011;66179;44.686;37.628;2022-12-18T16:59:32;12.05;;;6.80;;
76856;SDS011;66179;44.686;37.628;2022-12-18T17:02:02;11.37;;;6.53;;